createdAt,value
2018-10-19T00:00:25.160Z,70.36
2018-10-19T00:02:55.256Z,70.27
2018-10-19T00:05:28.271Z,69.92
2018-10-19T00:07:59.150Z,69.68
2018-10-19T00:10:28.252Z,68.92
2018-10-19T00:12:57.121Z,68.17
2018-10-19T00:15:27.076Z,68.51
2018-10-19T00:17:56.896Z,68.85
2018-10-19T00:20:25.594Z,69.27
2018-10-19T00:22:55.667Z,69.75
2018-10-19T00:25:24.883Z,69.15
2018-10-19T00:27:54.379Z,69.25
2018-10-19T00:30:23.442Z,70.27
2018-10-19T00:32:54.877Z,70.76
2018-10-19T00:35:23.368Z,69.30
2018-10-19T00:37:54.374Z,68.54
2018-10-19T00:40:23.714Z,69.28
2018-10-19T00:42:53.604Z,69.67
2018-10-19T00:45:28.095Z,70.61
2018-10-19T00:47:56.661Z,71.09
2018-10-19T00:50:25.692Z,70.44
2018-10-19T00:52:55.546Z,71.30
2018-10-19T00:55:25.456Z,71.14
2018-10-19T00:57:56.426Z,71.88
2018-10-19T01:00:25.988Z,72.71
2018-10-19T01:02:55.804Z,73.14
2018-10-19T01:05:25.109Z,73.51
2018-10-19T01:14:40.273Z,76.01
2018-10-19T01:17:09.984Z,74.83
2018-10-19T01:19:38.467Z,74.62
2018-10-19T01:22:07.027Z,74.15
2018-10-19T01:24:35.532Z,74.42
2018-10-19T01:27:05.259Z,73.72
2018-10-19T01:29:34.181Z,73.67
2018-10-19T01:32:03.723Z,73.36
2018-10-19T01:34:33.852Z,72.96
2018-10-19T01:37:06.826Z,72.93
2018-10-19T01:39:37.175Z,73.48
2018-10-19T01:42:07.215Z,73.68
2018-10-19T01:44:36.290Z,74.93
2018-10-19T01:47:05.154Z,75.07
2018-10-19T01:49:34.306Z,74.87
2018-10-19T01:52:03.755Z,74.50
2018-10-19T01:54:32.256Z,73.99
2018-10-19T01:57:03.712Z,73.93
2018-10-19T01:59:34.413Z,73.47
2018-10-19T02:02:04.594Z,73.13
2018-10-19T02:04:36.772Z,72.40
2018-10-19T02:07:06.384Z,73.14
2018-10-19T02:09:35.600Z,72.57
2018-10-19T02:12:05.229Z,72.77
2018-10-19T02:14:33.811Z,73.21
2018-10-19T02:17:04.374Z,74.09
2018-10-19T02:19:32.935Z,74.49
2018-10-19T02:22:02.572Z,74.95
2018-10-19T02:24:33.996Z,75.04
2018-10-19T02:27:03.701Z,74.03
2018-10-19T02:29:33.100Z,73.79
2018-10-19T02:32:03.760Z,73.46
2018-10-19T02:34:40.318Z,73.33
2018-10-19T02:37:09.328Z,73.84
2018-10-19T02:39:38.388Z,74.17
2018-10-19T02:42:10.954Z,73.47
2018-10-19T02:44:39.824Z,73.10
2018-10-19T02:47:11.190Z,72.76
2018-10-19T02:49:40.126Z,72.35
2018-10-19T02:52:08.923Z,72.83
2018-10-19T02:54:39.184Z,71.44
2018-10-19T02:57:08.107Z,70.93
2018-10-19T02:59:37.275Z,70.86
2018-10-19T03:02:07.435Z,70.25
2018-10-19T03:04:36.066Z,70.72
2018-10-19T03:07:05.615Z,71.59
2018-10-19T03:09:34.728Z,71.51
2018-10-19T03:12:03.956Z,71.97
2018-10-19T03:14:36.271Z,71.62
2018-10-19T03:17:05.898Z,70.47
2018-10-19T03:19:34.840Z,71.23
2018-10-19T03:22:03.673Z,71.19
2018-10-19T03:24:33.492Z,69.54
2018-10-19T03:27:03.612Z,69.57
2018-10-19T03:29:34.648Z,70.64
2018-10-19T03:32:05.725Z,70.87
2018-10-19T03:34:37.878Z,69.65
2018-10-19T03:37:06.888Z,69.46
2018-10-19T03:39:36.419Z,69.06
2018-10-19T03:42:05.805Z,69.63
2018-10-19T03:44:38.192Z,69.65
2018-10-19T03:47:08.277Z,69.62
2018-10-19T03:49:37.345Z,71.80
2018-10-19T03:52:07.364Z,67.90
2018-10-19T03:54:36.744Z,67.76
2018-10-19T03:57:06.520Z,67.15
2018-10-19T03:59:35.310Z,67.00
2018-10-19T04:02:05.007Z,66.39
2018-10-19T04:04:33.777Z,66.19
2018-10-19T04:07:02.661Z,66.26
2018-10-19T04:09:31.177Z,65.70
2018-10-19T04:12:01.912Z,65.00
2018-10-19T04:14:31.728Z,64.73
2018-10-19T04:17:01.567Z,65.45
2018-10-19T04:19:31.405Z,65.61
2018-10-19T04:22:01.400Z,67.83
2018-10-19T04:24:32.165Z,68.34
2018-10-19T04:29:37.128Z,68.01
2018-10-19T04:32:06.344Z,68.83
2018-10-19T04:34:36.177Z,67.82
2018-10-19T04:37:06.637Z,67.87
2018-10-19T04:39:39.330Z,68.03
2018-10-19T04:42:11.749Z,67.80
2018-10-19T04:44:41.347Z,68.13
2018-10-19T04:47:10.359Z,69.59
2018-10-19T04:49:39.479Z,69.50
2018-10-19T04:52:09.709Z,70.71
2018-10-19T04:54:38.795Z,70.19
2018-10-19T04:57:08.403Z,68.38
2018-10-19T04:59:38.415Z,68.56
2018-10-19T05:02:08.089Z,68.66
2018-10-19T05:04:38.229Z,66.02
2018-10-19T05:07:09.189Z,65.53
2018-10-19T05:09:38.295Z,66.40
2018-10-19T05:12:07.117Z,67.77
2018-10-19T05:14:39.192Z,67.24
2018-10-19T05:17:10.344Z,68.51
2018-10-19T05:19:39.833Z,69.36
2018-10-19T05:22:09.310Z,69.91
2018-10-19T05:24:38.790Z,70.57
2018-10-19T05:27:08.720Z,68.88
2018-10-19T05:29:38.059Z,71.00
2018-10-19T05:32:08.827Z,69.54
2018-10-19T05:34:40.332Z,69.35
2018-10-19T05:37:10.355Z,68.96
2018-10-19T05:39:41.959Z,68.17
2018-10-19T05:42:11.176Z,68.66
2018-10-19T05:44:43.556Z,68.96
2018-10-19T05:47:14.164Z,70.74
2018-10-19T05:49:42.578Z,71.07
2018-10-19T05:52:12.280Z,71.00
2018-10-19T05:54:41.440Z,71.12
2018-10-19T05:57:11.854Z,70.55
2018-10-19T05:59:40.436Z,70.02
2018-10-19T06:02:09.948Z,70.60
2018-10-19T06:04:38.463Z,69.78
2018-10-19T06:07:09.988Z,69.83
2018-10-19T06:09:39.091Z,70.72
2018-10-19T06:12:09.665Z,70.54
2018-10-19T06:14:38.842Z,70.84
2018-10-19T06:17:09.014Z,71.41
2018-10-19T06:19:39.420Z,71.63
2018-10-19T06:22:08.923Z,73.20
2018-10-19T06:24:48.516Z,74.79
2018-10-19T06:27:19.095Z,75.84
2018-10-19T06:29:48.608Z,76.40
2018-10-19T06:32:18.475Z,75.59
2018-10-19T06:34:47.408Z,75.50
2018-10-19T06:37:17.198Z,75.71
2018-10-19T06:39:51.707Z,75.52
2018-10-19T06:42:32.148Z,75.54
2018-10-19T06:45:32.574Z,74.87
2018-10-19T06:48:02.729Z,74.82
2018-10-19T06:50:31.806Z,75.02
2018-10-19T06:53:01.164Z,73.36
2018-10-19T06:55:29.907Z,74.15
2018-10-19T06:58:14.256Z,74.52
2018-10-19T07:00:42.833Z,73.32
2018-10-19T07:03:12.066Z,72.91
2018-10-19T07:05:43.071Z,71.85
2018-10-19T07:08:11.650Z,71.17
2018-10-19T07:10:42.616Z,70.23
2018-10-19T07:13:12.080Z,71.06
2018-10-19T07:15:42.503Z,71.00
2018-10-19T07:18:13.162Z,71.28
2018-10-19T07:20:43.401Z,70.00
2018-10-19T07:23:12.617Z,69.33
2018-10-19T07:25:49.127Z,69.83
2018-10-19T07:28:20.158Z,70.66
2018-10-19T07:30:49.789Z,70.68
2018-10-19T07:33:20.207Z,69.47
2018-10-19T07:36:05.451Z,70.37
2018-10-19T07:38:34.901Z,69.60
2018-10-19T07:41:05.157Z,68.48
2018-10-19T07:43:33.760Z,68.61
2018-10-19T07:46:02.915Z,68.94
2018-10-19T07:48:33.083Z,68.58
2018-10-19T07:51:02.589Z,68.54
2018-10-19T07:53:35.439Z,67.91
2018-10-19T07:56:06.504Z,67.39
2018-10-19T07:58:36.839Z,68.49
2018-10-19T08:01:06.719Z,68.75
2018-10-19T08:03:36.377Z,68.80
2018-10-19T08:06:05.188Z,69.31
2018-10-19T08:08:35.167Z,70.31
2018-10-19T08:11:05.934Z,71.33
2018-10-19T08:13:35.411Z,68.76
2018-10-19T08:16:04.532Z,68.68
2018-10-19T08:18:34.929Z,69.43
2018-10-19T08:21:06.874Z,68.18
2018-10-19T08:23:36.567Z,67.59
2018-10-19T08:26:06.108Z,67.63
2018-10-19T08:28:35.245Z,66.99
2018-10-19T08:31:07.532Z,67.48
2018-10-19T08:33:36.719Z,67.29
2018-10-19T08:36:05.681Z,67.46
2018-10-19T08:38:34.789Z,68.08
2018-10-19T08:41:06.423Z,66.90
2018-10-19T08:43:38.423Z,67.01
2018-10-19T08:46:14.464Z,68.06
2018-10-19T08:48:44.789Z,68.36
2018-10-19T08:51:14.316Z,68.56
2018-10-19T08:53:45.684Z,68.20
2018-10-19T08:56:15.227Z,65.65
2018-10-19T08:58:46.516Z,65.72
2018-10-19T09:01:15.763Z,65.00
2018-10-19T09:03:45.112Z,66.12
2018-10-19T09:06:14.731Z,64.85
2018-10-19T09:08:45.035Z,65.96
2018-10-19T09:11:15.611Z,66.70
2018-10-19T09:13:44.132Z,64.98
2018-10-19T09:16:13.685Z,66.04
2018-10-19T09:18:44.320Z,66.21
2018-10-19T09:21:14.775Z,64.52
2018-10-19T09:23:45.553Z,64.76
2018-10-19T09:26:15.611Z,63.91
2018-10-19T09:28:48.477Z,64.55
2018-10-19T09:31:18.600Z,63.43
2018-10-19T09:33:48.147Z,64.59
2018-10-19T09:36:17.643Z,64.56
2018-10-19T09:38:49.031Z,64.91
2018-10-19T09:41:19.840Z,64.91
2018-10-19T09:43:49.429Z,66.39
2018-10-19T09:46:19.716Z,64.09
2018-10-19T09:48:49.634Z,63.53
2018-10-19T09:51:22.105Z,62.08
2018-10-19T09:53:51.415Z,63.08
2018-10-19T09:56:20.349Z,62.76
2018-10-19T09:58:49.316Z,63.59
2018-10-19T10:01:25.353Z,64.26
2018-10-19T10:03:54.607Z,64.21
2018-10-19T10:06:25.252Z,65.19
2018-10-19T10:08:54.798Z,64.86
2018-10-19T10:11:23.611Z,62.15
2018-10-19T10:13:53.557Z,61.89
2018-10-19T10:16:23.037Z,61.18
2018-10-19T10:18:51.945Z,61.97
2018-10-19T10:21:22.087Z,60.51
2018-10-19T10:23:52.082Z,60.27
2018-10-19T10:26:21.473Z,60.83
2018-10-19T10:28:51.526Z,61.09
2018-10-19T10:31:22.015Z,62.19
2018-10-19T10:33:52.701Z,62.11
2018-10-19T10:36:22.402Z,62.32
2018-10-19T10:38:51.384Z,62.05
2018-10-19T10:41:21.784Z,61.49
2018-10-19T10:43:51.108Z,60.97
2018-10-19T10:46:21.651Z,62.39
2018-10-19T10:48:52.134Z,59.94
2018-10-19T10:51:24.530Z,60.60
2018-10-19T10:54:04.266Z,60.62
2018-10-19T10:56:35.790Z,60.92
2018-10-19T10:59:05.755Z,62.96
2018-10-19T11:01:36.104Z,62.48
2018-10-19T11:04:07.506Z,62.53
2018-10-19T11:06:37.956Z,61.89
2018-10-19T11:09:09.248Z,61.51
2018-10-19T11:11:41.040Z,61.47
2018-10-19T11:14:12.766Z,61.06
2018-10-19T11:16:42.193Z,59.92
2018-10-19T11:19:11.804Z,60.70
2018-10-19T11:21:41.091Z,60.02
2018-10-19T11:24:13.494Z,60.02
2018-10-19T11:29:43.713Z,61.10
2018-10-19T11:32:13.587Z,59.61
2018-10-19T11:34:42.236Z,58.60
2018-10-19T11:37:13.272Z,58.79
2018-10-19T11:39:52.658Z,58.01
2018-10-19T11:42:22.113Z,58.29
2018-10-19T11:44:53.038Z,58.34
2018-10-19T11:47:23.012Z,57.01
2018-10-19T11:49:52.209Z,57.72
2018-10-19T11:52:22.110Z,58.33
2018-10-19T11:54:52.010Z,56.54
2018-10-19T11:57:20.758Z,56.65
2018-10-19T11:59:51.543Z,56.71
2018-10-19T12:02:22.916Z,56.82
2018-10-19T12:04:53.332Z,55.52
2018-10-19T12:07:22.570Z,56.13
2018-10-19T12:09:52.199Z,57.12
2018-10-19T12:12:22.563Z,56.12
2018-10-19T12:14:53.335Z,55.38
2018-10-19T12:17:22.935Z,55.90
2018-10-19T12:19:52.958Z,56.07
2018-10-19T12:22:24.036Z,56.50
2018-10-19T12:24:53.893Z,56.42
2018-10-19T12:27:23.137Z,55.42
2018-10-19T12:29:52.731Z,56.19
2018-10-19T12:32:22.659Z,55.42
2018-10-19T12:34:52.667Z,55.93
2018-10-19T12:37:21.937Z,56.20
2018-10-19T12:39:50.968Z,56.60
2018-10-19T12:42:22.619Z,54.25
2018-10-19T12:44:52.591Z,54.94
2018-10-19T12:47:39.241Z,54.85
2018-10-19T12:50:09.580Z,56.17
2018-10-19T12:52:38.733Z,55.51
2018-10-19T12:55:10.149Z,55.36
2018-10-19T12:57:39.340Z,55.03
2018-10-19T13:00:09.799Z,55.26
2018-10-19T13:02:39.470Z,55.54
2018-10-19T13:05:11.051Z,55.02
2018-10-19T13:07:40.128Z,54.89
2018-10-19T13:10:15.905Z,54.20
2018-10-19T13:12:45.664Z,54.89
2018-10-19T13:15:15.442Z,54.30
2018-10-19T13:17:45.820Z,54.60
2018-10-19T13:20:16.507Z,54.71
2018-10-19T13:22:45.779Z,54.11
2018-10-19T13:25:14.387Z,54.26
2018-10-19T13:27:43.956Z,54.79
2018-10-19T13:30:13.099Z,53.88
2018-10-19T13:32:43.077Z,53.60
2018-10-19T13:35:13.197Z,53.25
2018-10-19T13:37:42.869Z,54.06
2018-10-19T13:40:13.791Z,53.27
2018-10-19T13:42:44.006Z,53.30
2018-10-19T13:45:13.179Z,53.11
2018-10-19T13:47:44.490Z,52.37
2018-10-19T13:50:13.268Z,52.93
2018-10-19T13:52:43.095Z,53.23
2018-10-19T13:55:11.692Z,52.69
2018-10-19T13:57:41.978Z,52.15
2018-10-19T14:00:12.021Z,52.20
2018-10-19T14:02:40.619Z,53.03
2018-10-19T14:05:10.975Z,52.75
2018-10-19T14:07:43.226Z,52.42
2018-10-19T14:10:13.740Z,52.71
2018-10-19T14:12:42.828Z,53.08
2018-10-19T14:15:12.828Z,52.53
2018-10-19T14:17:43.735Z,52.08
2018-10-19T14:20:13.744Z,52.42
2018-10-19T14:22:43.342Z,51.96
2018-10-19T14:25:14.823Z,53.67
2018-10-19T14:27:45.087Z,53.67
2018-10-19T14:30:15.262Z,53.07
2018-10-19T14:32:44.695Z,52.90
2018-10-19T14:35:15.213Z,53.05
2018-10-19T14:37:46.130Z,54.03
2018-10-19T14:40:19.880Z,53.58
2018-10-19T14:42:48.840Z,53.88
2018-10-19T14:45:18.388Z,53.85
2018-10-19T14:47:49.521Z,52.82
2018-10-19T14:50:19.222Z,54.85
2018-10-19T14:52:48.763Z,54.53
2018-10-19T14:55:19.336Z,54.38
2018-10-19T14:57:48.485Z,54.82
2018-10-19T15:00:19.706Z,54.25
2018-10-19T15:02:49.549Z,54.93
2018-10-19T15:05:19.855Z,54.36
2018-10-19T15:07:49.991Z,54.83
2018-10-19T15:13:05.775Z,54.72
2018-10-19T15:15:37.088Z,55.54
2018-10-19T15:18:10.886Z,54.61
2018-10-19T15:20:40.784Z,55.74
2018-10-19T15:23:09.313Z,55.85
2018-10-19T15:25:39.393Z,55.51
2018-10-19T15:28:09.691Z,55.66
2018-10-19T15:30:39.142Z,55.66
2018-10-19T15:33:08.186Z,55.70
2018-10-19T15:35:38.134Z,56.58
2018-10-19T15:38:06.665Z,56.78
2018-10-19T15:40:36.000Z,56.11
2018-10-19T15:43:07.313Z,55.94
2018-10-19T15:45:36.832Z,56.16
2018-10-19T15:48:06.604Z,55.72
2018-10-19T15:50:37.489Z,55.29
2018-10-19T15:53:07.248Z,55.24
2018-10-19T15:55:37.010Z,56.52
2018-10-19T15:58:06.182Z,56.40
2018-10-19T16:00:37.805Z,56.88
2018-10-19T16:03:06.932Z,56.62
2018-10-19T16:05:35.530Z,55.87
2018-10-19T16:08:04.916Z,55.91
2018-10-19T16:10:33.700Z,55.16
2018-10-19T16:13:05.575Z,55.62
2018-10-19T16:15:36.084Z,56.59
2018-10-19T16:18:06.708Z,56.01
2018-10-19T16:20:38.705Z,55.88
2018-10-19T16:23:08.317Z,55.95
2018-10-19T16:25:40.143Z,55.73
2018-10-19T16:28:10.205Z,56.58
2018-10-19T16:30:38.977Z,56.03
2018-10-19T16:33:08.402Z,56.79
2018-10-19T16:35:37.869Z,57.06
2018-10-19T16:38:08.329Z,56.44
2018-10-19T16:40:37.360Z,56.92
2018-10-19T16:43:07.327Z,57.83
2018-10-19T16:45:37.853Z,57.73
2018-10-19T16:49:36.651Z,58.24
2018-10-19T16:52:10.645Z,58.61
2018-10-19T16:54:39.817Z,59.74
2018-10-19T16:57:09.699Z,58.82
2018-10-19T16:59:40.577Z,58.74
2018-10-19T17:02:11.303Z,59.13
2018-10-19T17:04:41.571Z,58.08
2018-10-19T17:07:10.445Z,59.13
2018-10-19T17:09:41.052Z,58.04
2018-10-19T17:12:11.639Z,58.43
2018-10-19T17:14:40.636Z,59.43
2018-10-19T17:17:10.420Z,59.28
2018-10-19T17:19:39.688Z,58.64
2018-10-19T17:22:08.932Z,59.29
2018-10-19T17:24:38.891Z,59.42
2018-10-19T17:27:08.532Z,59.40
2018-10-19T17:29:37.034Z,59.19
2018-10-19T17:32:07.169Z,59.44
2018-10-19T17:34:38.312Z,59.32
2018-10-19T17:37:09.555Z,59.95
2018-10-19T17:39:38.981Z,60.01
2018-10-19T17:42:08.356Z,59.76
2018-10-19T17:44:38.036Z,60.47
2018-10-19T17:47:08.054Z,60.04
2018-10-19T17:49:38.656Z,59.94
2018-10-19T17:52:09.540Z,61.47
2018-10-19T17:54:39.052Z,61.85
2018-10-19T17:57:10.253Z,62.41
2018-10-19T17:59:39.695Z,63.73
2018-10-19T18:02:08.599Z,62.94
2018-10-19T18:04:39.301Z,61.86
2018-10-19T18:07:08.684Z,61.74
2018-10-19T18:09:40.555Z,61.33
2018-10-19T18:12:10.147Z,62.17
2018-10-19T18:14:39.508Z,61.94
2018-10-19T18:17:09.157Z,62.25
2018-10-19T18:19:38.071Z,61.42
2018-10-19T18:22:10.199Z,62.98
2018-10-19T18:24:39.560Z,64.08
2018-10-19T18:27:08.871Z,63.12
2018-10-19T18:29:39.423Z,61.86
2018-10-19T18:32:09.267Z,63.75
2018-10-19T18:34:40.614Z,63.18
2018-10-19T18:37:10.093Z,63.67
2018-10-19T18:39:40.678Z,65.16
2018-10-19T18:42:10.425Z,66.04
2018-10-19T18:44:40.277Z,63.94
2018-10-19T18:47:09.937Z,63.13
2018-10-19T18:49:38.389Z,62.83
2018-10-19T18:52:09.346Z,62.14
2018-10-19T18:54:38.732Z,61.39
2018-10-19T18:57:09.670Z,61.53
2018-10-19T18:59:40.163Z,62.74
2018-10-19T19:02:09.357Z,62.25
2018-10-19T19:04:38.821Z,61.81
2018-10-19T19:07:09.052Z,62.41
2018-10-19T19:09:39.537Z,62.81
2018-10-19T19:12:11.091Z,61.39
2018-10-19T19:14:40.336Z,62.13
2018-10-19T19:17:11.196Z,62.60
2018-10-19T19:19:41.385Z,63.25
2018-10-19T19:22:11.785Z,62.48
2018-10-19T19:24:46.805Z,62.20
2018-10-19T19:27:15.496Z,62.51
2018-10-19T19:29:44.877Z,62.57
2018-10-19T19:32:14.116Z,62.05
2018-10-19T19:34:43.662Z,62.94
2018-10-19T19:37:12.515Z,61.49
2018-10-19T19:39:42.912Z,61.68
2018-10-19T19:42:18.212Z,61.88
2018-10-19T19:44:50.433Z,61.75
2018-10-19T19:47:26.412Z,61.17
2018-10-19T19:50:00.130Z,61.73
2018-10-19T19:52:31.058Z,61.86
2018-10-19T19:55:02.192Z,62.12
2018-10-19T19:57:31.332Z,63.39
2018-10-19T20:00:03.391Z,65.01
2018-10-19T20:02:33.160Z,65.77
2018-10-19T20:05:01.775Z,65.68
2018-10-19T20:07:30.816Z,64.86
2018-10-19T20:10:00.277Z,65.45
2018-10-19T20:12:30.312Z,64.12
2018-10-19T20:15:01.407Z,62.96
2018-10-19T20:17:32.083Z,63.53
2018-10-19T20:20:01.151Z,63.38
2018-10-19T20:22:30.789Z,62.36
2018-10-19T20:24:59.955Z,61.25
2018-10-19T20:27:29.584Z,62.97
2018-10-19T20:29:58.100Z,64.77
2018-10-19T20:32:27.512Z,65.01
2018-10-19T20:34:56.241Z,65.54
2018-10-19T20:37:26.422Z,65.04
2018-10-19T20:39:58.311Z,65.96
2018-10-19T20:42:27.676Z,65.22
2018-10-19T20:44:56.313Z,64.35
2018-10-19T20:47:26.596Z,65.51
2018-10-19T20:49:57.653Z,66.38
2018-10-19T20:52:28.132Z,66.11
2018-10-19T20:54:56.710Z,66.59
2018-10-19T20:57:28.783Z,68.19
2018-10-19T20:59:59.204Z,67.61
2018-10-19T21:02:29.131Z,67.56
2018-10-19T21:04:59.467Z,68.13
2018-10-19T21:07:29.569Z,67.54
2018-10-19T21:09:59.628Z,66.89
2018-10-19T21:12:30.472Z,65.75
2018-10-19T21:14:59.503Z,64.52
2018-10-19T21:17:28.021Z,65.83
2018-10-19T21:19:58.046Z,65.01
2018-10-19T21:22:27.336Z,64.29
2018-10-19T21:24:57.260Z,64.61
2018-10-19T21:27:27.501Z,65.81
2018-10-19T21:29:58.478Z,67.00
2018-10-19T21:32:28.879Z,66.10
2018-10-19T21:34:57.659Z,66.27
2018-10-19T21:37:27.148Z,67.18
2018-10-19T21:39:56.692Z,68.00
2018-10-19T21:42:27.820Z,68.57
2018-10-19T21:44:58.274Z,68.66
2018-10-19T21:47:28.736Z,68.08
2018-10-19T21:49:58.381Z,68.19
2018-10-19T21:52:28.106Z,69.81
2018-10-19T21:54:58.629Z,69.30
2018-10-19T21:57:29.524Z,68.84
2018-10-19T21:59:58.040Z,68.84
2018-10-19T22:02:26.685Z,69.02
2018-10-19T22:04:56.176Z,68.18
2018-10-19T22:07:25.532Z,65.92
2018-10-19T22:09:55.367Z,68.06
2018-10-19T22:12:26.014Z,68.75
2018-10-19T22:14:54.561Z,68.29
2018-10-19T22:17:24.515Z,70.25
2018-10-19T22:22:38.867Z,70.58
2018-10-19T22:25:07.819Z,70.56
2018-10-19T22:27:37.404Z,68.95
2018-10-19T22:30:09.831Z,69.61
2018-10-19T22:32:39.016Z,70.58
2018-10-19T22:35:08.266Z,71.56
2018-10-19T22:37:38.612Z,70.68
2018-10-19T22:40:08.124Z,69.82
2018-10-19T22:42:37.276Z,69.60
2018-10-19T22:45:08.168Z,71.11
2018-10-19T22:47:37.986Z,71.20
2018-10-19T22:50:06.884Z,71.28
2018-10-19T22:52:36.954Z,71.57
2018-10-19T22:55:07.016Z,71.33
2018-10-19T22:57:36.492Z,72.60
2018-10-19T23:00:06.204Z,72.44
2018-10-19T23:02:36.790Z,72.39
2018-10-19T23:05:06.013Z,74.11
2018-10-19T23:07:36.724Z,73.98
2018-10-19T23:10:08.400Z,73.91
2018-10-19T23:12:37.960Z,72.98
2018-10-19T23:15:07.651Z,73.69
2018-10-19T23:17:37.602Z,73.96
2018-10-19T23:20:08.335Z,73.57
2018-10-19T23:22:37.291Z,74.21
2018-10-19T23:25:08.560Z,74.11
2018-10-19T23:27:39.245Z,73.59
2018-10-19T23:30:10.348Z,73.51
2018-10-19T23:32:39.445Z,71.81
2018-10-19T23:35:10.164Z,71.71
2018-10-19T23:37:40.773Z,71.91
2018-10-19T23:40:11.180Z,73.03
2018-10-19T23:42:46.950Z,73.04
2018-10-19T23:45:15.787Z,72.89
2018-10-19T23:47:45.809Z,71.55
2018-10-19T23:50:16.964Z,71.77
2018-10-19T23:52:46.910Z,72.87
2018-10-19T23:55:16.573Z,74.57
2018-10-19T23:57:46.480Z,74.24
